Time;durP1;ratioP1;P1;durP2;ratioP2;P2;SDS_P1;SDS_P2;PMS_P1;PMS_P2;Temp;Humidity;BMP_temperature;BMP_pressure;BME280_temperature;BME280_humidity;BME280_pressure;Samples;Min_cycle;Max_cycle;Signal;HPM_P1;HPM_P2
2022/04/16 00:01:58;;;;;;;21.17;16.88;;;10.70;99.90;;;;;;5043911;28;20033;-72
2022/04/16 00:04:23;;;;;;;22.05;16.83;;;10.70;99.90;;;;;;5043921;28;20025;-72
2022/04/16 00:06:49;;;;;;;22.52;17.88;;;10.70;99.90;;;;;;5035640;27;20033;-72
2022/04/16 00:09:14;;;;;;;19.33;15.32;;;10.70;99.90;;;;;;5038523;28;20108;-72
2022/04/16 00:11:40;;;;;;;19.70;16.92;;;10.70;99.90;;;;;;5034838;28;20068;-72
2022/04/16 00:14:06;;;;;;;25.88;17.42;;;10.70;99.90;;;;;;5037838;28;20106;-73
2022/04/16 00:16:32;;;;;;;21.02;16.15;;;10.60;99.90;;;;;;5043937;28;20033;-72
2022/04/16 00:18:58;;;;;;;24.00;18.88;;;10.50;99.90;;;;;;5039753;28;20055;-72
2022/04/16 00:21:24;;;;;;;21.05;16.23;;;10.50;99.90;;;;;;5035886;28;20466;-72
2022/04/16 00:23:51;;;;;;;23.27;17.10;;;10.50;99.90;;;;;;5036904;28;20029;-72
2022/04/16 00:26:18;;;;;;;22.05;17.02;;;10.50;99.90;;;;;;5031067;28;20490;-72
2022/04/16 00:28:44;;;;;;;23.15;18.70;;;10.40;99.90;;;;;;5043690;28;20100;-72
2022/04/16 00:31:11;;;;;;;23.35;18.48;;;10.50;99.90;;;;;;5042163;28;20157;-72
2022/04/16 00:33:37;;;;;;;23.15;17.77;;;10.50;99.90;;;;;;5034921;28;20433;-72
2022/04/16 00:36:03;;;;;;;26.75;19.25;;;10.50;99.90;;;;;;5039762;28;20025;-72
2022/04/16 00:38:29;;;;;;;26.63;18.55;;;10.40;99.90;;;;;;5032246;27;20017;-72
2022/04/16 00:40:55;;;;;;;28.77;19.88;;;10.20;99.90;;;;;;5038776;28;20439;-72
2022/04/16 00:43:27;;;;;;;30.02;18.60;;;10.30;99.90;;;;;;5042190;28;20528;-72
2022/04/16 00:45:54;;;;;;;25.60;20.23;;;10.30;99.90;;;;;;5034402;28;20029;-72
2022/04/16 00:48:23;;;;;;;29.02;20.92;;;10.30;99.90;;;;;;5039494;28;20025;-72
2022/04/16 00:50:56;;;;;;;28.95;20.80;;;10.20;99.90;;;;;;5039722;27;20558;-72
2022/04/16 00:53:25;;;;;;;27.80;20.80;;;10.10;99.90;;;;;;5037497;28;20380;-71
2022/04/16 00:55:51;;;;;;;29.58;19.50;;;10.00;99.90;;;;;;5036278;28;20070;-72
2022/04/16 00:58:17;;;;;;;25.90;19.90;;;10.00;99.90;;;;;;5036135;28;20445;-72
2022/04/16 01:00:43;;;;;;;27.77;20.13;;;10.00;99.90;;;;;;5037271;28;20101;-72
2022/04/16 01:03:09;;;;;;;28.92;20.50;;;10.00;99.90;;;;;;5040430;28;20018;-72
2022/04/16 01:05:37;;;;;;;31.02;20.48;;;10.10;99.90;;;;;;5036224;28;20079;-72
2022/04/16 01:08:04;;;;;;;30.08;20.73;;;10.10;99.90;;;;;;5039799;27;20044;-72
2022/04/16 01:10:32;;;;;;;28.63;21.80;;;10.10;99.90;;;;;;5036633;28;20044;-72
2022/04/16 01:13:00;;;;;;;26.75;20.25;;;10.10;99.90;;;;;;5039232;28;20064;-73
2022/04/16 01:15:29;;;;;;;28.65;20.67;;;10.20;99.90;;;;;;5036371;27;20037;-72
2022/04/16 01:17:56;;;;;;;29.85;20.73;;;10.10;99.90;;;;;;5044559;28;20027;-72
2022/04/16 01:20:22;;;;;;;33.42;20.58;;;10.20;99.90;;;;;;5037384;28;20026;-72
2022/04/16 01:22:50;;;;;;;34.38;21.33;;;10.10;99.90;;;;;;5042633;28;20485;-72
2022/04/16 01:25:16;;;;;;;30.60;20.38;;;10.10;99.90;;;;;;5039097;27;20115;-72
2022/04/16 01:27:46;;;;;;;32.85;22.88;;;10.10;99.90;;;;;;5044049;28;20468;-72
2022/04/16 01:30:17;;;;;;;33.13;22.95;;;10.00;99.90;;;;;;5035898;27;20056;-72
2022/04/16 01:32:43;;;;;;;29.92;22.00;;;10.00;99.90;;;;;;5041624;28;20390;-72
2022/04/16 01:35:10;;;;;;;34.60;25.13;;;10.00;99.90;;;;;;5042086;27;20037;-72
2022/04/16 01:37:37;;;;;;;33.10;23.48;;;9.90;99.90;;;;;;5039779;28;20147;-72
2022/04/16 01:40:08;;;;;;;29.88;21.33;;;10.00;99.90;;;;;;5044400;28;20366;-72
2022/04/16 01:42:35;;;;;;;28.88;21.80;;;10.10;99.90;;;;;;5041284;28;20105;-72
2022/04/16 01:45:03;;;;;;;31.92;21.25;;;10.10;99.90;;;;;;5036376;28;20025;-72
2022/04/16 01:47:28;;;;;;;28.67;21.83;;;9.90;99.90;;;;;;5042922;28;20055;-72
2022/04/16 01:49:55;;;;;;;33.50;24.17;;;9.90;99.90;;;;;;5043748;28;20035;-72
2022/04/16 01:52:23;;;;;;;35.90;23.00;;;9.90;99.90;;;;;;5037954;27;20036;-72
2022/04/16 01:54:49;;;;;;;31.10;22.08;;;9.90;99.90;;;;;;5042954;28;20028;-71
2022/04/16 01:57:18;;;;;;;30.88;21.52;;;9.90;99.90;;;;;;5043240;27;20104;-72
2022/04/16 01:59:48;;;;;;;30.85;23.35;;;10.00;99.90;;;;;;5035343;28;20030;-72
2022/04/16 02:02:15;;;;;;;31.27;22.23;;;9.90;99.90;;;;;;5039181;27;20290;-72
2022/04/16 02:04:40;;;;;;;33.80;23.55;;;9.90;99.90;;;;;;5041702;28;20026;-73
2022/04/16 02:07:06;;;;;;;35.47;22.58;;;9.90;99.90;;;;;;5039847;28;20029;-72
2022/04/16 02:09:33;;;;;;;32.05;22.67;;;9.90;99.90;;;;;;5034684;27;20056;-72
2022/04/16 02:11:59;;;;;;;32.20;21.77;;;9.80;99.90;;;;;;5041826;28;20048;-72
2022/04/16 02:14:24;;;;;;;31.92;21.20;;;9.80;99.90;;;;;;5041605;28;20025;-72
2022/04/16 02:16:50;;;;;;;31.27;21.67;;;9.80;99.90;;;;;;5039537;28;20030;-72
2022/04/16 02:19:16;;;;;;;34.25;23.98;;;9.70;99.90;;;;;;5038344;27;20025;-72
2022/04/16 02:21:44;;;;;;;35.42;22.92;;;9.80;99.90;;;;;;5045333;28;20039;-72
2022/04/16 02:24:13;;;;;;;30.02;21.63;;;9.70;99.90;;;;;;5036252;28;20207;-72
2022/04/16 02:26:40;;;;;;;29.73;21.83;;;9.80;99.90;;;;;;5037474;28;20451;-73
2022/04/16 02:29:05;;;;;;;36.20;23.58;;;9.80;99.90;;;;;;5036149;27;20018;-72
2022/04/16 02:31:31;;;;;;;36.17;25.25;;;9.80;99.90;;;;;;5042593;28;20519;-72
2022/04/16 02:33:57;;;;;;;35.80;25.20;;;9.80;99.90;;;;;;5044274;28;20032;-72
2022/04/16 02:36:26;;;;;;;32.00;23.00;;;9.70;99.90;;;;;;5044897;28;20029;-72
2022/04/16 02:38:54;;;;;;;31.15;22.23;;;9.70;99.90;;;;;;5035514;27;20037;-72
2022/04/16 02:41:23;;;;;;;37.53;22.77;;;9.70;99.90;;;;;;5039196;28;20056;-72
2022/04/16 02:43:49;;;;;;;35.88;23.10;;;9.70;99.90;;;;;;5049342;28;20021;-72
2022/04/16 02:48:59;;;;;;;32.55;23.05;;;9.70;99.90;;;;;;5038822;28;20032;-72
2022/04/16 02:51:25;;;;;;;31.23;22.27;;;9.80;99.90;;;;;;5037492;28;20029;-72
2022/04/16 02:53:50;;;;;;;31.90;22.55;;;9.70;99.90;;;;;;5037931;28;20419;-72
2022/04/16 02:56:17;;;;;;;35.75;23.95;;;9.70;99.90;;;;;;5039323;28;20032;-72
2022/04/16 02:58:43;;;;;;;34.58;23.42;;;9.70;99.90;;;;;;5036378;27;20045;-72
2022/04/16 03:01:08;;;;;;;36.72;24.15;;;9.60;99.90;;;;;;5040340;28;20087;-72
2022/04/16 03:03:34;;;;;;;35.63;24.95;;;9.60;99.90;;;;;;5041414;28;20030;-72
2022/04/16 03:06:00;;;;;;;36.58;25.05;;;9.60;99.90;;;;;;5040059;28;20401;-72
2022/04/16 03:08:25;;;;;;;39.47;25.42;;;9.60;99.90;;;;;;5038562;28;20036;-72
2022/04/16 03:10:52;;;;;;;39.17;26.55;;;9.50;99.90;;;;;;5039320;28;20119;-72
2022/04/16 03:13:18;;;;;;;39.80;25.95;;;9.50;99.90;;;;;;5046625;28;20086;-72
2022/04/16 03:18:28;;;;;;;35.90;24.70;;;9.50;99.90;;;;;;5040376;28;20039;-72
2022/04/16 03:20:54;;;;;;;36.55;25.38;;;9.50;99.90;;;;;;5047958;28;20123;-72
2022/04/16 03:23:20;;;;;;;42.10;25.23;;;9.50;99.90;;;;;;5042390;28;20025;-72
2022/04/16 03:25:48;;;;;;;40.58;25.98;;;9.50;99.90;;;;;;5034265;28;20033;-72
2022/04/16 03:28:14;;;;;;;36.47;25.30;;;9.50;99.90;;;;;;5035019;28;20354;-72
2022/04/16 03:30:40;;;;;;;38.35;25.95;;;9.40;99.90;;;;;;5044519;28;20025;-72
2022/04/16 03:33:06;;;;;;;38.58;24.48;;;9.40;99.90;;;;;;5038560;27;20025;-72
2022/04/16 03:35:34;;;;;;;36.40;24.63;;;9.40;99.90;;;;;;5040737;28;20107;-72
2022/04/16 03:37:59;;;;;;;34.47;24.30;;;9.40;99.90;;;;;;5034150;28;20029;-71
2022/04/16 03:40:26;;;;;;;34.30;24.25;;;9.40;99.90;;;;;;5040471;28;20508;-71
2022/04/16 03:42:53;;;;;;;37.17;24.52;;;9.40;99.90;;;;;;5037483;27;20399;-72
2022/04/16 03:45:24;;;;;;;35.45;25.60;;;9.30;99.90;;;;;;5037031;28;20018;-71
2022/04/16 03:47:52;;;;;;;34.85;23.98;;;9.30;99.90;;;;;;5037603;27;20061;-72
2022/04/16 03:50:19;;;;;;;36.03;24.70;;;9.30;99.90;;;;;;5036477;28;20060;-72
2022/04/16 03:52:46;;;;;;;33.03;23.77;;;9.30;99.90;;;;;;5035876;27;20112;-72
2022/04/16 04:00:51;;;;;;;35.95;24.75;;;9.20;99.90;;;;;;5038106;28;20404;-72
2022/04/16 04:03:18;;;;;;;41.90;25.48;;;9.20;99.90;;;;;;5043919;28;20032;-72
2022/04/16 04:05:49;;;;;;;42.05;26.52;;;9.10;99.90;;;;;;5042366;28;20067;-72
2022/04/16 04:08:16;;;;;;;37.90;24.60;;;9.10;99.90;;;;;;5036241;28;20030;-72
2022/04/16 04:10:42;;;;;;;44.13;28.35;;;9.00;99.90;;;;;;5039494;28;20545;-72
2022/04/16 04:13:08;;;;;;;39.88;25.88;;;9.00;99.90;;;;;;5036237;28;20032;-72
2022/04/16 04:15:33;;;;;;;41.40;28.00;;;9.00;99.90;;;;;;5038682;28;20029;-72
2022/04/16 04:18:00;;;;;;;41.35;26.17;;;9.00;99.90;;;;;;5040665;28;20112;-72
2022/04/16 04:20:27;;;;;;;38.38;26.73;;;9.00;99.90;;;;;;5033716;27;20120;-72
2022/04/16 04:22:52;;;;;;;44.80;30.20;;;9.00;99.90;;;;;;5038759;28;20530;-72
2022/04/16 04:25:18;;;;;;;39.22;28.50;;;8.90;99.90;;;;;;5037682;28;20217;-72
2022/04/16 04:27:44;;;;;;;43.97;28.42;;;8.90;99.90;;;;;;5037688;28;20034;-71
2022/04/16 04:30:11;;;;;;;45.20;28.02;;;8.90;99.90;;;;;;5048377;28;20112;-71
2022/04/16 04:32:37;;;;;;;45.80;28.80;;;8.90;99.90;;;;;;5041927;28;20146;-72
2022/04/16 04:35:07;;;;;;;43.53;29.60;;;8.90;99.90;;;;;;5030601;27;20050;-72
2022/04/16 04:37:33;;;;;;;41.90;27.25;;;8.90;99.90;;;;;;5040463;28;20112;-72
2022/04/16 04:39:59;;;;;;;43.58;27.48;;;8.80;99.90;;;;;;5044703;28;20120;-72
2022/04/16 04:42:30;;;;;;;43.95;27.83;;;8.90;99.90;;;;;;5037178;27;20033;-72
2022/04/16 04:44:56;;;;;;;42.97;28.50;;;8.70;99.90;;;;;;5039346;28;20036;-72
2022/04/16 04:47:22;;;;;;;46.60;30.30;;;8.80;99.90;;;;;;5043090;28;20025;-72
2022/04/16 04:49:49;;;;;;;43.65;28.13;;;8.80;99.90;;;;;;5040032;27;20041;-72
2022/04/16 04:52:30;;;;;;;45.25;31.02;;;8.80;99.90;;;;;;5040332;28;20037;-72
2022/04/16 04:54:57;;;;;;;48.63;29.80;;;8.80;99.90;;;;;;5041722;28;20029;-72
2022/04/16 04:57:22;;;;;;;47.47;29.75;;;8.80;99.90;;;;;;5052477;27;20605;-72
2022/04/16 04:59:48;;;;;;;44.88;29.88;;;8.80;99.90;;;;;;5042598;27;20142;-72
2022/04/16 05:02:13;;;;;;;47.67;31.98;;;8.80;99.90;;;;;;5043029;28;20431;-72
2022/04/16 05:04:39;;;;;;;49.28;32.30;;;8.80;99.90;;;;;;5035941;27;20017;-72
2022/04/16 05:07:05;;;;;;;46.95;30.75;;;8.80;99.90;;;;;;5044586;28;20033;-71
2022/04/16 05:09:31;;;;;;;48.92;30.77;;;8.80;99.90;;;;;;5040338;27;20074;-72
2022/04/16 05:11:57;;;;;;;46.50;31.50;;;8.80;99.90;;;;;;5045162;28;20060;-72
2022/04/16 05:14:23;;;;;;;49.08;33.58;;;8.90;99.90;;;;;;5037601;27;20048;-71
2022/04/16 05:16:49;;;;;;;49.67;33.90;;;8.90;99.90;;;;;;5034802;28;20044;-72
2022/04/16 05:19:15;;;;;;;49.10;33.58;;;8.80;99.90;;;;;;5041119;28;20029;-72
2022/04/16 05:21:41;;;;;;;45.20;30.90;;;8.80;99.90;;;;;;5037141;27;20048;-72
2022/04/16 05:24:08;;;;;;;47.20;29.70;;;8.80;99.90;;;;;;5042065;28;20497;-72
2022/04/16 05:26:34;;;;;;;46.70;30.13;;;8.80;99.90;;;;;;5040976;28;20030;-71
2022/04/16 05:29:00;;;;;;;47.00;31.58;;;8.70;99.90;;;;;;5048543;28;20025;-72
2022/04/16 05:31:30;;;;;;;49.80;31.92;;;8.80;99.90;;;;;;5040844;28;20546;-72
2022/04/16 05:36:40;;;;;;;46.08;31.23;;;8.80;99.90;;;;;;5044817;28;20089;-72
2022/04/16 05:39:06;;;;;;;42.13;29.27;;;8.90;99.90;;;;;;5043422;28;20024;-72
2022/04/16 05:41:35;;;;;;;46.95;28.85;;;8.90;99.90;;;;;;5040113;27;20040;-72
2022/04/16 05:44:04;;;;;;;47.15;30.67;;;8.90;99.90;;;;;;5042769;28;20492;-72
2022/04/16 05:46:30;;;;;;;44.65;30.33;;;8.90;99.90;;;;;;5043452;28;20477;-72
2022/04/16 05:48:56;;;;;;;49.22;31.60;;;8.80;99.90;;;;;;5037522;27;20112;-72
2022/04/16 05:51:24;;;;;;;48.75;31.90;;;9.00;99.90;;;;;;5039929;28;20105;-71
2022/04/16 05:53:51;;;;;;;45.20;29.60;;;8.90;99.90;;;;;;5041129;28;20029;-71
2022/04/16 05:56:18;;;;;;;44.83;30.20;;;9.00;99.90;;;;;;5039493;28;20082;-71
2022/04/16 05:58:44;;;;;;;52.45;32.72;;;9.00;99.90;;;;;;5040843;28;20112;-71
2022/04/16 06:01:10;;;;;;;52.45;32.50;;;8.90;99.90;;;;;;5037753;28;20121;-71
2022/04/16 06:03:39;;;;;;;51.05;31.63;;;8.90;99.90;;;;;;5035968;27;20021;-71
2022/04/16 06:06:06;;;;;;;59.10;35.75;;;8.90;99.90;;;;;;5036571;28;20072;-71
2022/04/16 06:08:31;;;;;;;56.42;33.28;;;8.90;99.90;;;;;;5034239;27;20548;-72
2022/04/16 06:10:57;;;;;;;52.08;34.40;;;8.90;99.90;;;;;;5041887;28;20100;-72
2022/04/16 06:13:23;;;;;;;55.28;37.13;;;9.00;99.90;;;;;;5038097;28;20116;-71
2022/04/16 06:15:49;;;;;;;62.17;38.22;;;9.00;99.90;;;;;;5038796;28;20025;-71
2022/04/16 06:18:14;;;;;;;59.88;37.10;;;8.90;99.90;;;;;;5038100;28;20040;-71
2022/04/16 06:20:40;;;;;;;58.95;37.58;;;9.00;99.90;;;;;;5041961;28;20025;-72
2022/04/16 06:23:06;;;;;;;65.38;38.60;;;9.00;99.90;;;;;;5044610;28;20059;-71
2022/04/16 06:25:32;;;;;;;56.30;38.03;;;9.00;99.90;;;;;;5038600;27;20025;-72
2022/04/16 06:27:58;;;;;;;59.75;34.85;;;9.00;99.90;;;;;;5043169;28;20040;-71
2022/04/16 06:30:24;;;;;;;60.45;36.67;;;9.10;99.90;;;;;;5045952;28;20718;-72
2022/04/16 06:32:49;;;;;;;57.08;36.40;;;9.10;99.90;;;;;;5041827;28;20014;-71
2022/04/16 06:35:15;;;;;;;60.13;36.92;;;9.20;99.90;;;;;;5048705;28;20476;-72
2022/04/16 06:37:41;;;;;;;53.65;33.90;;;9.30;99.90;;;;;;5036624;27;20051;-71
2022/04/16 06:40:09;;;;;;;61.15;36.63;;;9.40;99.90;;;;;;5040969;28;20037;-71
2022/04/16 06:42:35;;;;;;;56.88;36.85;;;9.50;99.90;;;;;;5038775;28;20116;-71
2022/04/16 06:45:01;;;;;;;56.97;37.20;;;9.60;99.90;;;;;;5044272;28;20068;-72
2022/04/16 06:47:29;;;;;;;58.85;38.63;;;9.70;99.90;;;;;;5041079;28;20041;-72
2022/04/16 06:49:55;;;;;;;58.20;36.53;;;9.70;99.90;;;;;;5041418;28;20021;-71
2022/04/16 06:52:21;;;;;;;58.42;36.05;;;9.70;99.90;;;;;;5034777;28;20075;-72
2022/04/16 06:54:47;;;;;;;58.70;35.88;;;9.70;99.90;;;;;;5041202;28;20505;-71
2022/04/16 06:57:13;;;;;;;56.08;32.85;;;9.90;99.90;;;;;;5036872;27;20056;-71
2022/04/16 06:59:39;;;;;;;54.08;33.28;;;10.00;99.90;;;;;;5040863;28;20105;-72
2022/04/16 07:02:09;;;;;;;52.35;32.80;;;10.10;99.90;;;;;;5045159;28;20090;-72
2022/04/16 07:04:35;;;;;;;55.85;33.70;;;10.10;99.90;;;;;;5037229;28;20025;-72
2022/04/16 07:07:01;;;;;;;55.08;34.00;;;10.20;99.90;;;;;;5035795;27;20108;-72
2022/04/16 07:09:26;;;;;;;54.65;35.70;;;10.30;99.90;;;;;;5040363;28;20041;-72
2022/04/16 07:11:52;;;;;;;51.28;32.55;;;10.40;99.90;;;;;;5039306;27;20149;-71
2022/04/16 07:14:19;;;;;;;56.97;33.85;;;10.40;99.90;;;;;;5037131;28;20061;-72
2022/04/16 07:16:45;;;;;;;53.53;34.28;;;10.50;99.90;;;;;;5038905;27;20048;-72
2022/04/16 07:19:10;;;;;;;53.58;33.78;;;10.50;99.90;;;;;;5041072;28;20473;-72
2022/04/16 07:21:36;;;;;;;49.55;32.63;;;10.60;99.90;;;;;;5037800;27;20044;-71
2022/04/16 07:24:02;;;;;;;48.70;32.03;;;10.70;99.90;;;;;;5041557;28;20081;-71
2022/04/16 07:26:27;;;;;;;51.35;32.58;;;11.00;99.90;;;;;;5037637;28;20055;-72
2022/04/16 07:28:53;;;;;;;48.78;31.75;;;11.10;99.90;;;;;;5035486;28;20059;-72
2022/04/16 07:31:19;;;;;;;48.03;28.08;;;11.10;99.90;;;;;;5047630;28;20059;-72
2022/04/16 07:33:45;;;;;;;56.28;33.83;;;11.20;99.90;;;;;;5034724;27;20029;-71
2022/04/16 07:36:11;;;;;;;46.60;29.92;;;11.20;99.90;;;;;;5035755;28;20030;-72
2022/04/16 07:38:36;;;;;;;50.78;29.75;;;11.30;99.90;;;;;;5033392;27;20079;-72
2022/04/16 07:41:02;;;;;;;44.03;28.67;;;11.40;99.90;;;;;;5040588;28;20117;-72
2022/04/16 07:43:29;;;;;;;45.35;29.77;;;11.40;99.90;;;;;;5037722;27;20377;-72
2022/04/16 07:45:55;;;;;;;42.88;28.75;;;11.60;99.90;;;;;;5038137;28;20155;-72
2022/04/16 07:48:20;;;;;;;43.85;27.23;;;11.80;99.90;;;;;;5039139;28;20431;-72
2022/04/16 07:50:46;;;;;;;46.45;28.55;;;12.00;99.90;;;;;;5043834;28;20048;-72
2022/04/16 07:53:12;;;;;;;39.80;26.95;;;12.00;99.90;;;;;;5043790;28;20434;-72
2022/04/16 07:55:37;;;;;;;45.50;26.15;;;12.10;99.90;;;;;;5039914;27;20074;-72
2022/04/16 07:58:03;;;;;;;40.50;26.02;;;12.20;99.90;;;;;;5044228;28;20489;-72
2022/04/16 08:00:29;;;;;;;41.30;26.65;;;12.30;99.90;;;;;;5041133;27;20068;-72
2022/04/16 08:02:55;;;;;;;42.10;27.27;;;12.50;99.90;;;;;;5042254;28;20392;-72
2022/04/16 08:05:20;;;;;;;39.65;24.33;;;12.60;99.90;;;;;;5043401;27;20021;-72
2022/04/16 08:07:46;;;;;;;36.55;24.17;;;12.90;99.90;;;;;;5039769;28;20025;-72
2022/04/16 08:10:12;;;;;;;37.10;24.27;;;13.10;99.90;;;;;;5044520;28;20056;-72
2022/04/16 08:12:37;;;;;;;33.50;23.58;;;13.20;99.90;;;;;;5035784;27;20104;-72
2022/04/16 08:15:06;;;;;;;35.28;24.40;;;13.30;99.90;;;;;;5041824;28;20353;-72
2022/04/16 08:17:33;;;;;;;36.22;23.98;;;13.30;99.90;;;;;;5042105;28;20489;-72
2022/04/16 08:19:58;;;;;;;37.60;26.58;;;13.30;99.90;;;;;;5034093;27;20106;-72
2022/04/16 08:22:24;;;;;;;35.03;23.83;;;13.40;99.90;;;;;;5044232;28;20503;-72
2022/04/16 08:27:35;;;;;;;31.60;22.35;;;13.60;99.90;;;;;;5039465;28;20097;-72
2022/04/16 08:30:01;;;;;;;32.97;22.95;;;13.70;99.90;;;;;;5035938;27;20085;-72
2022/04/16 08:32:27;;;;;;;35.97;21.90;;;13.70;99.90;;;;;;5040098;28;20434;-72
2022/04/16 08:34:52;;;;;;;37.42;23.45;;;13.80;99.90;;;;;;5044628;28;20553;-72
2022/04/16 08:37:18;;;;;;;31.13;22.00;;;13.80;99.90;;;;;;5038280;27;20060;-72
2022/04/16 08:39:44;;;;;;;32.88;23.42;;;13.90;99.90;;;;;;5041138;28;20372;-72
2022/04/16 08:42:10;;;;;;;36.35;25.63;;;14.00;99.90;;;;;;5037974;27;20116;-72
2022/04/16 08:44:39;;;;;;;34.50;22.92;;;14.20;99.90;;;;;;5037680;28;20013;-72
2022/04/16 08:47:05;;;;;;;31.90;22.30;;;14.30;99.90;;;;;;5035632;27;20029;-72
2022/04/16 08:49:33;;;;;;;31.95;20.60;;;14.50;99.90;;;;;;5038440;28;20100;-72
2022/04/16 08:51:59;;;;;;;34.22;21.52;;;14.70;99.90;;;;;;5035707;28;20151;-72
2022/04/16 08:54:25;;;;;;;27.17;20.02;;;14.90;99.90;;;;;;5038161;28;20017;-72
2022/04/16 08:56:51;;;;;;;25.17;16.70;;;15.10;99.90;;;;;;5038654;28;20442;-72
2022/04/16 08:59:17;;;;;;;26.55;18.15;;;15.00;99.90;;;;;;5035629;28;20034;-72
2022/04/16 09:01:43;;;;;;;24.80;17.17;;;15.20;99.90;;;;;;5034136;27;20037;-73
2022/04/16 09:04:21;;;;;;;25.25;17.33;;;15.20;99.90;;;;;;5040310;28;20033;-72
2022/04/16 09:07:01;;;;;;;21.85;15.55;;;15.30;99.90;;;;;;5034730;27;20021;-72
2022/04/16 09:09:28;;;;;;;23.15;16.08;;;15.30;99.90;;;;;;5035052;28;20051;-72
2022/04/16 09:11:54;;;;;;;22.63;16.77;;;15.50;99.90;;;;;;5043718;28;20572;-72
2022/04/16 09:14:31;;;;;;;21.30;13.05;;;15.40;99.90;;;;;;5036882;27;20099;-72
2022/04/16 09:16:57;;;;;;;19.85;14.98;;;15.50;99.90;;;;;;5041640;28;21494;-73
2022/04/16 09:19:28;;;;;;;23.67;16.73;;;15.50;99.90;;;;;;5037594;27;20057;-72
2022/04/16 09:21:54;;;;;;;15.55;11.73;;;15.60;99.90;;;;;;5039996;28;20067;-73
2022/04/16 09:24:20;;;;;;;16.17;12.32;;;15.90;99.90;;;;;;5035315;27;20404;-72
2022/04/16 09:26:49;;;;;;;16.65;12.40;;;15.90;99.90;;;;;;5037405;28;20070;-73
2022/04/16 09:29:16;;;;;;;16.90;12.48;;;16.00;99.90;;;;;;5038901;28;20036;-72
2022/04/16 09:31:46;;;;;;;16.25;12.05;;;16.00;99.90;;;;;;5031103;28;20045;-72
2022/04/16 09:34:19;;;;;;;17.65;13.07;;;16.00;99.90;;;;;;5036092;28;20028;-72
2022/04/16 09:36:46;;;;;;;18.95;14.30;;;16.30;99.90;;;;;;5037910;27;20480;-72
2022/04/16 09:39:12;;;;;;;16.95;13.35;;;16.50;99.90;;;;;;5043793;28;20043;-72
2022/04/16 09:41:42;;;;;;;14.02;10.68;;;16.50;99.90;;;;;;5042715;28;20047;-72
2022/04/16 09:44:21;;;;;;;13.68;10.50;;;16.40;99.90;;;;;;5040514;28;20386;-73
2022/04/16 09:46:48;;;;;;;17.67;12.93;;;16.60;99.90;;;;;;5041248;28;20064;-73
2022/04/16 09:49:16;;;;;;;15.43;12.23;;;16.30;99.90;;;;;;5042446;28;20057;-73
2022/04/16 09:51:44;;;;;;;11.93;9.13;;;16.40;99.90;;;;;;5040549;27;20021;-73
2022/04/16 09:54:10;;;;;;;9.52;7.13;;;16.50;99.90;;;;;;5042821;28;20029;-73
2022/04/16 09:56:37;;;;;;;13.00;8.10;;;16.80;99.90;;;;;;5037147;27;20036;-72
2022/04/16 09:59:08;;;;;;;11.13;8.48;;;17.00;99.90;;;;;;5042402;28;20032;-73
2022/04/16 10:01:38;;;;;;;14.18;9.93;;;17.10;99.90;;;;;;5040298;28;20025;-73
2022/04/16 10:04:06;;;;;;;9.90;8.65;;;17.20;99.90;;;;;;5039374;28;20029;-73
2022/04/16 10:06:32;;;;;;;9.27;7.68;;;17.30;99.90;;;;;;5037588;28;20025;-73
2022/04/16 10:09:00;;;;;;;9.43;7.93;;;17.00;99.90;;;;;;5040585;28;20035;-73
2022/04/16 10:14:44;;;;;;;10.82;8.20;;;16.70;99.90;;;;;;5037297;28;20084;-73
2022/04/16 10:17:25;;;;;;;11.60;7.70;;;17.00;99.90;;;;;;5039479;28;20424;-72
2022/04/16 10:19:54;;;;;;;11.48;8.15;;;17.10;99.90;;;;;;5045251;28;20054;-75
2022/04/16 10:22:27;;;;;;;9.02;7.05;;;17.30;99.90;;;;;;5037124;28;20034;-73
2022/04/16 10:24:59;;;;;;;8.45;6.80;;;17.20;99.90;;;;;;5041969;28;20112;-73
2022/04/16 10:27:32;;;;;;;8.55;7.40;;;17.00;99.90;;;;;;5042384;28;20029;-73
2022/04/16 10:30:03;;;;;;;8.75;7.55;;;17.30;99.90;;;;;;5039768;28;20029;-73
2022/04/16 10:32:40;;;;;;;7.72;6.93;;;17.40;99.90;;;;;;5043566;28;20457;-73
2022/04/16 10:35:17;;;;;;;7.25;6.45;;;17.70;99.90;;;;;;5043752;28;20047;-74
2022/04/16 10:37:48;;;;;;;6.85;6.15;;;18.20;99.90;;;;;;5039921;27;20039;-72
2022/04/16 10:40:17;;;;;;;7.75;6.28;;;18.10;98.60;;;;;;5039551;28;20033;-72
2022/04/16 10:42:59;;;;;;;7.18;6.25;;;17.80;98.40;;;;;;5046269;28;20036;-72
2022/04/16 10:45:25;;;;;;;7.75;6.20;;;18.00;98.90;;;;;;5036366;27;20032;-72
2022/04/16 10:47:53;;;;;;;8.15;5.78;;;18.20;98.40;;;;;;5041196;28;20381;-72
2022/04/16 10:50:20;;;;;;;6.03;5.43;;;18.20;98.40;;;;;;5041760;28;20435;-72
2022/04/16 10:53:01;;;;;;;6.30;5.60;;;18.20;98.80;;;;;;5041292;27;20401;-73
2022/04/16 10:55:31;;;;;;;7.63;5.53;;;18.30;96.70;;;;;;5036191;28;20040;-74
2022/04/16 10:58:03;;;;;;;6.93;5.32;;;17.90;97.30;;;;;;5033494;28;20036;-72
2022/04/16 11:00:45;;;;;;;6.97;5.00;;;17.90;97.00;;;;;;5042677;28;20441;-72
2022/04/16 11:03:19;;;;;;;11.00;5.15;;;18.00;97.50;;;;;;5044359;28;20101;-72
2022/04/16 11:05:44;;;;;;;6.38;4.68;;;18.20;97.10;;;;;;5039119;28;20025;-72
2022/04/16 11:08:12;;;;;;;5.60;4.93;;;18.10;96.70;;;;;;5036483;28;20062;-73
2022/04/16 11:10:39;;;;;;;5.80;5.03;;;18.40;97.30;;;;;;5043042;28;20040;-73
2022/04/16 11:13:05;;;;;;;6.35;5.75;;;18.50;96.60;;;;;;5046212;28;20029;-73
2022/04/16 11:15:31;;;;;;;6.63;4.90;;;18.90;96.40;;;;;;5032186;28;20026;-73
2022/04/16 11:17:58;;;;;;;5.28;4.78;;;19.00;95.40;;;;;;5038390;27;20149;-73
2022/04/16 11:20:25;;;;;;;6.20;4.75;;;19.00;95.90;;;;;;5037798;28;20021;-73
2022/04/16 11:22:51;;;;;;;5.50;4.93;;;18.90;95.50;;;;;;5039603;28;20132;-73
2022/04/16 11:25:20;;;;;;;5.38;4.88;;;18.60;94.60;;;;;;5040756;28;20447;-74
2022/04/16 11:36:11;;;;;;;6.60;5.60;;;18.70;93.90;;;;;;5039166;28;20045;-72
2022/04/16 11:38:39;;;;;;;7.72;5.30;;;18.40;95.80;;;;;;5045818;28;20071;-72
2022/04/16 11:41:12;;;;;;;5.78;4.80;;;18.60;97.20;;;;;;5047275;28;20042;-72
2022/04/16 11:43:58;;;;;;;4.95;4.55;;;18.80;95.20;;;;;;5036159;28;20029;-72
2022/04/16 11:46:23;;;;;;;7.88;5.93;;;19.20;94.40;;;;;;5039522;28;20214;-72
2022/04/16 11:48:50;;;;;;;7.88;5.47;;;19.20;93.10;;;;;;5039208;28;20108;-73
2022/04/16 11:51:18;;;;;;;7.53;5.68;;;19.00;94.00;;;;;;5039173;28;20026;-72
2022/04/16 11:53:45;;;;;;;7.80;5.95;;;18.80;93.20;;;;;;5040247;28;20040;-72
2022/04/16 11:56:10;;;;;;;6.25;5.65;;;18.70;93.80;;;;;;5041511;28;20034;-73
2022/04/16 11:58:36;;;;;;;7.47;6.10;;;18.80;94.80;;;;;;5035552;27;20028;-73
2022/04/16 12:01:03;;;;;;;6.68;5.93;;;18.70;94.00;;;;;;5039792;28;20044;-73
2022/04/16 12:03:40;;;;;;;6.93;6.22;;;18.80;94.10;;;;;;5037733;28;20025;-73
2022/04/16 12:06:13;;;;;;;8.75;6.43;;;18.90;93.50;;;;;;5041652;28;20036;-73
2022/04/16 12:08:43;;;;;;;7.97;6.18;;;19.00;93.10;;;;;;5038638;28;20566;-74
2022/04/16 12:11:10;;;;;;;7.97;7.18;;;19.00;93.60;;;;;;5038471;28;20039;-72
2022/04/16 12:13:37;;;;;;;7.57;6.68;;;18.90;93.20;;;;;;5038960;27;20028;-73
2022/04/16 12:16:08;;;;;;;7.97;6.95;;;18.70;92.40;;;;;;5040074;28;20511;-73
2022/04/16 12:18:42;;;;;;;8.00;7.20;;;18.80;92.90;;;;;;5042559;28;20110;-72
2022/04/16 12:21:13;;;;;;;8.07;7.25;;;18.70;92.80;;;;;;5041384;28;20060;-72
2022/04/16 12:23:40;;;;;;;7.13;6.30;;;18.90;93.20;;;;;;5042751;28;20029;-73
2022/04/16 12:26:07;;;;;;;8.57;7.20;;;18.80;92.60;;;;;;5040674;27;20158;-72
2022/04/16 12:28:43;;;;;;;9.50;7.47;;;19.00;92.50;;;;;;5036839;28;20030;-72
2022/04/16 12:31:12;;;;;;;7.90;7.20;;;19.10;92.20;;;;;;5038802;28;20049;-72
2022/04/16 12:33:38;;;;;;;8.88;7.10;;;19.30;91.70;;;;;;5037926;28;20110;-72
2022/04/16 12:36:06;;;;;;;7.57;6.30;;;19.20;93.10;;;;;;5042550;27;20443;-72
2022/04/16 12:38:31;;;;;;;7.80;7.00;;;19.00;92.50;;;;;;5037641;28;20085;-72
2022/04/16 12:41:05;;;;;;;7.95;6.50;;;19.10;90.70;;;;;;5038091;28;20120;-72
2022/04/16 12:43:31;;;;;;;7.60;6.68;;;19.20;90.80;;;;;;5039637;28;20059;-72
2022/04/16 12:45:56;;;;;;;9.50;7.18;;;19.20;91.70;;;;;;5038752;28;20056;-72
2022/04/16 12:48:22;;;;;;;8.88;6.88;;;19.30;90.90;;;;;;5038195;28;20017;-72
2022/04/16 12:50:48;;;;;;;9.43;8.35;;;19.50;91.80;;;;;;5039920;27;20025;-72
2022/04/16 12:53:14;;;;;;;11.13;8.80;;;19.20;91.40;;;;;;5040456;28;20021;-74
2022/04/16 12:55:39;;;;;;;10.13;9.05;;;19.30;93.80;;;;;;5037610;28;20189;-72
2022/04/16 12:58:05;;;;;;;9.95;8.38;;;19.30;92.10;;;;;;5042195;28;20104;-72
2022/04/16 13:00:31;;;;;;;10.05;8.25;;;19.40;92.70;;;;;;5039615;28;20029;-73
2022/04/16 13:02:59;;;;;;;9.32;7.70;;;19.40;90.70;;;;;;5033413;28;20029;-72
2022/04/16 13:05:26;;;;;;;9.80;8.50;;;19.40;93.10;;;;;;5033786;27;20037;-72